Time;durP1;ratioP1;P1;durP2;ratioP2;P2;SDS_P1;SDS_P2;PMS_P1;PMS_P2;Temp;Humidity;BMP_temperature;BMP_pressure;BME280_temperature;BME280_humidity;BME280_pressure;Samples;Min_cycle;Max_cycle;Signal;HPM_P1;HPM_P2
2022/03/12 00:01:07;;;;;;;16.92;6.32;;;;;;;1.41;34.33;100641.94;5047477;28;20100;-85
2022/03/12 00:03:32;;;;;;;22.48;5.63;;;;;;;1.38;34.12;100639.41;5045900;28;20029;-85
2022/03/12 00:06:00;;;;;;;15.65;6.07;;;;;;;1.35;34.04;100647.22;5049365;28;20114;-86
2022/03/12 00:08:55;;;;;;;19.08;5.85;;;;;;;1.32;34.46;100648.13;5050520;28;20063;-86
2022/03/12 00:11:20;;;;;;;;;;;;;;;1.38;33.88;100642.00;5051946;28;20064;-86
2022/03/12 00:13:46;;;;;;;18.08;6.78;;;;;;;1.37;34.14;100628.22;5050337;28;19916;-86
2022/03/12 00:16:15;;;;;;;17.20;5.75;;;;;;;1.44;33.20;100634.06;5050804;28;20363;-85
2022/03/12 00:18:46;;;;;;;27.42;7.50;;;;;;;1.45;33.42;100622.88;5050093;28;20071;-87
2022/03/12 00:21:12;;;;;;;15.02;5.88;;;;;;;1.48;32.85;100622.78;5050754;28;20117;-87
2022/03/12 00:23:40;;;;;;;25.65;7.07;;;;;;;1.50;32.43;100621.03;5050554;28;20064;-86
2022/03/12 00:26:17;;;;;;;20.83;6.00;;;;;;;1.51;32.77;100619.28;5051104;28;20041;-86
2022/03/12 00:28:53;;;;;;;22.80;6.22;;;;;;;1.56;32.11;100623.47;5051428;28;20112;-86
2022/03/12 00:31:22;;;;;;;14.48;5.28;;;;;;;1.49;32.91;100614.16;5062074;28;20041;-88
2022/03/12 00:33:48;;;;;;;15.38;5.63;;;;;;;1.48;32.34;100620.19;5062952;28;20068;-86
2022/03/12 00:36:15;;;;;;;18.67;5.80;;;;;;;1.41;32.53;100614.34;5065188;28;20041;-87
2022/03/12 00:38:41;;;;;;;15.82;5.40;;;;;;;1.37;32.77;100628.22;5054455;28;20099;-88
2022/03/12 00:41:07;;;;;;;23.00;5.22;;;;;;;1.37;32.56;100624.78;5050579;28;20041;-86
2022/03/12 00:43:35;;;;;;;15.85;5.03;;;;;;;1.41;32.44;100613.50;5052499;28;20037;-86
2022/03/12 00:46:01;;;;;;;17.02;5.43;;;;;;;1.42;31.88;100616.03;5050870;28;20161;-87
2022/03/12 00:48:31;;;;;;;15.63;5.38;;;;;;;1.40;31.76;100615.22;5044847;28;20029;-86
2022/03/12 00:50:57;;;;;;;14.05;5.10;;;;;;;1.43;31.56;100612.56;5050179;28;20135;-88
2022/03/12 00:53:22;;;;;;;16.33;5.63;;;;;;;1.38;31.82;100613.56;5050362;28;20222;-88
2022/03/12 00:55:48;;;;;;;13.10;5.32;;;;;;;1.42;31.46;100617.78;5051548;28;20037;-86
2022/03/12 00:58:13;;;;;;;14.70;5.82;;;;;;;1.38;31.47;100609.25;5040093;28;20029;-88
2022/03/12 01:00:39;;;;;;;12.68;5.60;;;;;;;1.37;32.01;100606.69;5049617;28;20020;-88
2022/03/12 01:03:07;;;;;;;23.48;5.65;;;;;;;1.36;31.78;100615.34;5049796;28;20127;-85
2022/03/12 01:05:52;;;;;;;13.15;4.63;;;;;;;1.30;31.76;100599.97;5050433;28;20461;-86
2022/03/12 01:08:18;;;;;;;17.50;5.10;;;;;;;1.25;32.02;100600.09;5041029;28;20389;-88
2022/03/12 01:10:45;;;;;;;17.15;5.85;;;;;;;1.24;31.83;100606.16;5056935;28;20104;-87
2022/03/12 01:13:11;;;;;;;15.73;5.43;;;;;;;1.25;31.80;100599.25;5045813;28;20028;-87
2022/03/12 01:15:42;;;;;;;14.48;4.63;;;;;;;1.21;32.15;100599.31;5041762;28;20477;-87
2022/03/12 01:18:12;;;;;;;14.98;5.65;;;;;;;1.19;31.86;100590.75;5042113;28;20371;-85
2022/03/12 01:20:38;;;;;;;12.35;5.13;;;;;;;1.18;31.86;100594.22;5054094;28;20047;-85
2022/03/12 01:23:04;;;;;;;11.38;4.38;;;;;;;1.16;31.99;100588.25;5056533;28;20033;-86
2022/03/12 01:25:32;;;;;;;12.70;4.60;;;;;;;1.18;31.98;100601.13;5059234;28;20021;-86
2022/03/12 01:27:57;;;;;;;13.73;5.22;;;;;;;1.15;32.09;100606.34;5049046;28;20108;-85
2022/03/12 01:30:28;;;;;;;15.02;5.00;;;;;;;1.15;32.02;100601.19;5049558;28;20125;-85
2022/03/12 01:32:54;;;;;;;13.35;4.60;;;;;;;1.18;31.77;100604.53;5050185;28;20044;-86
2022/03/12 01:35:37;;;;;;;16.20;5.43;;;;;;;1.16;32.11;100608.06;5048352;28;20030;-87
2022/03/12 01:38:03;;;;;;;12.23;4.20;;;;;;;1.13;32.02;100602.97;5047806;28;20377;-86
2022/03/12 01:40:32;;;;;;;11.68;4.47;;;;;;;1.08;31.79;100587.59;5050362;28;20340;-87
2022/03/12 01:43:06;;;;;;;12.00;4.40;;;;;;;1.08;32.27;100594.47;5046896;28;20029;-86
2022/03/12 01:45:36;;;;;;;12.18;4.63;;;;;;;1.08;31.81;100592.75;5049395;28;20037;-86
2022/03/12 01:48:06;;;;;;;11.63;4.75;;;;;;;1.05;31.83;100595.41;5049760;28;20262;-87
2022/03/12 01:50:34;;;;;;;13.82;5.68;;;;;;;1.03;31.64;100594.56;5041198;28;20441;-87
2022/03/12 01:53:18;;;;;;;12.97;4.63;;;;;;;1.00;31.62;100592.03;5047708;28;20197;-86
2022/03/12 01:55:44;;;;;;;37.67;5.05;;;;;;;0.93;31.43;100591.38;5047719;28;20266;-87
2022/03/12 01:58:10;;;;;;;10.85;3.95;;;;;;;0.86;31.54;100594.97;5049787;28;20170;-86
2022/03/12 02:00:57;;;;;;;12.57;4.57;;;;;;;0.78;31.59;100589.13;5049443;28;20033;-86
2022/03/12 02:03:28;;;;;;;12.27;3.85;;;;;;;0.75;31.14;100590.91;5047153;28;20124;-87
2022/03/12 02:05:54;;;;;;;12.30;4.03;;;;;;;0.75;30.73;100594.34;5044823;28;20102;-85
2022/03/12 02:08:20;;;;;;;11.75;4.28;;;;;;;0.82;29.64;100595.91;5048325;28;20036;-86
2022/03/12 02:10:49;;;;;;;8.57;3.85;;;;;;;0.79;29.57;100598.56;5049977;28;20029;-86
2022/03/12 02:13:15;;;;;;;21.88;5.13;;;;;;;0.72;29.25;100595.25;5052291;28;20120;-86
2022/03/12 02:15:43;;;;;;;10.00;4.03;;;;;;;0.70;29.00;100591.88;5051260;28;20017;-85
2022/03/12 02:18:13;;;;;;;15.23;4.22;;;;;;;0.87;28.22;100603.56;5034966;28;20041;-86
2022/03/12 02:20:41;;;;;;;9.68;3.33;;;;;;;0.96;28.04;100593.88;5051109;28;20029;-86
2022/03/12 02:23:09;;;;;;;8.80;3.83;;;;;;;0.98;28.11;100609.31;5050363;28;20413;-85
2022/03/12 02:25:34;;;;;;;10.45;3.95;;;;;;;0.91;27.95;100608.59;5049232;28;20037;-87
2022/03/12 02:28:15;;;;;;;10.77;4.30;;;;;;;1.02;28.27;100607.53;5050909;28;20108;-86
2022/03/12 02:30:47;;;;;;;10.93;3.90;;;;;;;1.13;27.35;100596.06;5047022;28;20044;-86
2022/03/12 02:33:13;;;;;;;12.48;4.18;;;;;;;1.12;28.09;100611.59;5048800;28;20033;-86
2022/03/12 02:35:42;;;;;;;12.77;4.28;;;;;;;1.13;27.90;100613.28;5052410;28;20041;-87
2022/03/12 02:38:07;;;;;;;16.70;4.68;;;;;;;1.19;27.75;100608.00;5046177;28;20036;-86
2022/03/12 02:40:34;;;;;;;13.60;4.10;;;;;;;1.11;28.16;100613.34;5050821;28;20405;-85
2022/03/12 02:43:00;;;;;;;9.95;3.65;;;;;;;1.05;28.11;100607.47;5047052;28;20028;-85
2022/03/12 02:45:29;;;;;;;12.38;4.57;;;;;;;1.11;28.46;100607.31;5042639;28;20125;-85
2022/03/12 02:47:55;;;;;;;20.50;4.35;;;;;;;1.09;28.29;100612.50;5051509;28;20033;-86
2022/03/12 02:50:21;;;;;;;11.00;4.35;;;;;;;1.08;28.49;100605.66;5052013;28;20033;-85
2022/03/12 02:52:54;;;;;;;11.40;3.72;;;;;;;1.07;28.69;100610.84;5052597;28;20118;-87
2022/03/12 02:55:24;;;;;;;12.52;4.13;;;;;;;1.02;28.61;100607.53;5050717;28;20158;-86
2022/03/12 02:57:50;;;;;;;15.20;5.40;;;;;;;1.01;29.14;100603.25;5051254;28;20452;-86
2022/03/12 03:00:18;;;;;;;14.23;4.53;;;;;;;1.08;29.02;100602.22;5050890;28;20058;-85
2022/03/12 03:02:51;;;;;;;11.52;4.10;;;;;;;1.04;29.17;100598.00;5050768;28;20028;-86
2022/03/12 03:05:17;;;;;;;12.25;4.13;;;;;;;1.04;29.31;100600.56;5047728;28;21062;-85
2022/03/12 03:07:45;;;;;;;13.68;3.95;;;;;;;1.01;29.46;100600.66;5049956;28;20033;-88
2022/03/12 03:10:29;;;;;;;11.00;3.97;;;;;;;0.98;29.66;100608.47;5056931;28;20005;-89
2022/03/12 03:12:55;;;;;;;12.18;4.05;;;;;;;1.02;29.82;100612.69;5056939;28;20270;-86
2022/03/12 03:15:22;;;;;;;9.77;4.03;;;;;;;1.02;30.13;100598.03;5047849;28;20086;-86
2022/03/12 03:17:48;;;;;;;12.93;4.88;;;;;;;0.96;29.77;100598.16;5056248;28;20098;-86
2022/03/12 03:20:16;;;;;;;10.25;4.38;;;;;;;1.01;29.48;100608.41;5059942;28;20032;-85
2022/03/12 03:22:41;;;;;;;15.40;4.50;;;;;;;0.99;30.22;100615.34;5064825;28;20115;-85
2022/03/12 03:25:07;;;;;;;16.67;4.50;;;;;;;0.89;30.40;100620.72;5063687;28;20024;-85
2022/03/12 03:27:33;;;;;;;9.38;3.92;;;;;;;0.85;30.21;100623.38;5060058;28;20455;-86
2022/03/12 03:30:00;;;;;;;12.98;4.57;;;;;;;0.76;29.89;100621.84;5054208;28;20364;-86
2022/03/12 03:32:26;;;;;;;12.88;4.13;;;;;;;0.74;30.15;100623.59;5051808;28;20099;-85
2022/03/12 03:34:51;;;;;;;15.90;4.80;;;;;;;0.67;30.17;100633.22;5058249;28;20033;-86
2022/03/12 03:37:17;;;;;;;15.77;4.90;;;;;;;0.53;30.62;100629.22;5058103;28;20045;-85
2022/03/12 03:39:42;;;;;;;12.32;4.32;;;;;;;0.51;30.60;100624.06;5060546;28;20021;-86
2022/03/12 03:42:08;;;;;;;16.77;5.43;;;;;;;0.56;30.39;100631.75;5056385;28;20045;-86
2022/03/12 03:44:36;;;;;;;10.85;4.82;;;;;;;0.57;31.06;100629.13;5050412;28;20524;-87
2022/03/12 03:47:01;;;;;;;10.70;4.23;;;;;;;0.50;30.74;100634.44;5051960;28;20059;-87
2022/03/12 03:49:27;;;;;;;16.17;4.38;;;;;;;0.44;30.97;100635.41;5044838;28;20257;-86
2022/03/12 03:51:56;;;;;;;12.20;4.90;;;;;;;0.37;31.46;100647.59;5052875;28;20021;-88
2022/03/12 03:54:21;;;;;;;15.50;5.32;;;;;;;0.36;31.52;100634.69;5052570;28;20114;-85
2022/03/12 03:56:56;;;;;;;15.02;5.53;;;;;;;0.39;31.77;100647.53;5049063;28;20140;-87
2022/03/12 03:59:22;;;;;;;14.52;4.60;;;;;;;0.30;32.13;100639.97;5051161;28;20033;-87
2022/03/12 04:01:49;;;;;;;12.48;4.28;;;;;;;0.33;32.15;100634.75;5042146;28;20455;-88
2022/03/12 04:04:17;;;;;;;12.10;4.60;;;;;;;0.36;33.12;100634.69;5034440;28;20025;-87
2022/03/12 04:06:42;;;;;;;13.32;4.38;;;;;;;0.38;32.87;100626.06;5051125;28;20028;-87
2022/03/12 04:09:08;;;;;;;11.35;4.47;;;;;;;0.38;32.27;100630.38;5047824;28;20059;-87
2022/03/12 04:11:34;;;;;;;12.90;4.75;;;;;;;0.41;32.87;100617.44;5061233;28;20041;-88
2022/03/12 04:14:01;;;;;;;14.15;4.63;;;;;;;0.39;33.17;100617.44;5046814;28;20033;-86
2022/03/12 04:16:28;;;;;;;12.23;4.72;;;;;;;0.53;32.27;100617.16;5050141;28;20025;-86
2022/03/12 04:18:55;;;;;;;14.63;5.28;;;;;;;0.58;32.75;100624.81;5051872;28;20106;-86
2022/03/12 04:21:21;;;;;;;12.52;4.40;;;;;;;0.58;32.63;100617.91;5048395;28;20377;-86
2022/03/12 04:23:47;;;;;;;14.82;4.85;;;;;;;0.62;31.75;100623.88;5050755;28;20061;-87
2022/03/12 04:26:13;;;;;;;15.23;4.75;;;;;;;0.59;32.38;100632.50;5049688;28;20116;-87
2022/03/12 04:28:40;;;;;;;11.25;5.03;;;;;;;0.61;32.80;100624.75;5042479;28;20351;-85
2022/03/12 04:31:11;;;;;;;21.67;5.10;;;;;;;0.55;32.13;100625.72;5040290;28;20033;-87
2022/03/12 04:33:38;;;;;;;14.85;4.65;;;;;;;0.58;31.81;100630.81;5049887;28;20116;-85
2022/03/12 04:36:09;;;;;;;18.17;6.18;;;;;;;0.55;32.29;100625.72;5049827;28;20037;-86
2022/03/12 04:38:35;;;;;;;16.33;5.07;;;;;;;0.61;31.53;100617.84;5048811;28;20112;-87
2022/03/12 04:41:01;;;;;;;10.98;4.15;;;;;;;0.64;30.79;100620.38;5049063;28;20511;-86
2022/03/12 04:43:31;;;;;;;12.93;4.88;;;;;;;0.62;31.22;100632.44;5050262;28;20023;-86
2022/03/12 04:46:02;;;;;;;12.07;4.35;;;;;;;0.56;31.67;100629.16;5047507;28;20074;-86
2022/03/12 04:48:32;;;;;;;11.65;4.43;;;;;;;0.51;32.14;100629.25;5042273;28;20056;-88
2022/03/12 04:50:58;;;;;;;16.38;4.35;;;;;;;0.48;32.47;100625.00;5049610;28;20029;-86
2022/03/12 04:53:24;;;;;;;13.93;4.60;;;;;;;0.46;32.33;100634.50;5043187;28;20450;-88
2022/03/12 04:55:52;;;;;;;13.18;4.90;;;;;;;0.40;32.30;100629.44;5048922;28;20179;-86
2022/03/12 04:58:18;;;;;;;13.57;4.90;;;;;;;0.40;32.25;100638.91;5051663;28;20057;-86
2022/03/12 05:00:44;;;;;;;10.07;4.43;;;;;;;0.30;32.45;100629.66;5048570;28;20070;-87
2022/03/12 05:03:13;;;;;;;13.10;4.68;;;;;;;0.39;31.57;100634.66;5041756;28;20111;-86
2022/03/12 05:05:43;;;;;;;10.77;4.20;;;;;;;0.37;32.61;100633.81;5061409;28;20036;-87
2022/03/12 05:08:36;;;;;;;12.90;4.57;;;;;;;0.41;32.41;100627.75;5067012;28;20032;-86
2022/03/12 05:11:02;;;;;;;14.38;4.45;;;;;;;0.47;32.39;100630.19;5064156;28;20054;-87
2022/03/12 05:13:28;;;;;;;11.82;4.82;;;;;;;0.37;32.30;100628.66;5065084;28;20082;-86
2022/03/12 05:16:01;;;;;;;12.00;4.82;;;;;;;0.29;32.49;100633.97;5062943;28;20045;-85
2022/03/12 05:18:28;;;;;;;12.35;4.78;;;;;;;0.23;32.77;100634.09;5061028;28;20029;-87
2022/03/12 05:20:54;;;;;;;11.95;4.53;;;;;;;0.19;32.80;100630.72;5054036;28;20055;-86
2022/03/12 05:23:20;;;;;;;18.58;5.57;;;;;;;0.17;33.21;100636.78;5048606;28;20110;-87
2022/03/12 05:25:48;;;;;;;14.82;4.65;;;;;;;0.22;32.33;100643.56;5044005;28;20405;-86
2022/03/12 05:28:30;;;;;;;18.38;5.45;;;;;;;0.23;32.99;100634.09;5049498;28;20055;-87
2022/03/12 05:30:59;;;;;;;14.48;4.70;;;;;;;0.20;32.44;100629.00;5052684;28;20124;-87
2022/03/12 05:33:26;;;;;;;14.93;4.55;;;;;;;0.29;32.54;100625.38;5050079;28;20051;-87
2022/03/12 05:35:54;;;;;;;9.75;4.35;;;;;;;0.24;33.01;100639.22;5048701;28;20037;-87
2022/03/12 05:38:20;;;;;;;14.70;5.28;;;;;;;0.21;33.30;100643.59;5048568;28;20108;-87
2022/03/12 05:40:51;;;;;;;13.73;5.20;;;;;;;0.14;33.76;100636.84;5048199;28;20060;-87
2022/03/12 05:43:18;;;;;;;13.85;5.13;;;;;;;0.18;33.45;100638.47;5048436;28;20092;-88
2022/03/12 05:45:52;;;;;;;11.45;4.53;;;;;;;0.22;33.68;100642.69;5040318;28;20021;-88
2022/03/12 05:48:19;;;;;;;17.40;4.50;;;;;;;0.22;33.08;100643.56;5053420;28;20037;-88
2022/03/12 05:50:48;;;;;;;11.38;4.72;;;;;;;0.19;33.08;100642.78;5043965;28;20120;-87
2022/03/12 05:53:16;;;;;;;12.57;4.45;;;;;;;0.24;32.94;100646.97;5044051;28;20443;-87
2022/03/12 05:55:42;;;;;;;15.00;5.28;;;;;;;0.29;33.20;100648.59;5049643;28;20067;-88
2022/03/12 05:58:09;;;;;;;13.00;4.72;;;;;;;0.27;32.60;100647.78;5053192;28;20098;-88
2022/03/12 06:00:35;;;;;;;18.85;4.50;;;;;;;0.32;32.49;100646.81;5053933;28;20099;-86
2022/03/12 06:03:01;;;;;;;24.10;5.72;;;;;;;0.36;32.21;100652.75;5056043;28;20067;-87
2022/03/12 06:05:27;;;;;;;16.02;5.60;;;;;;;0.37;32.23;100657.91;5053124;28;20025;-88
2022/03/12 06:07:54;;;;;;;19.13;6.78;;;;;;;0.36;32.70;100656.19;5053121;28;20120;-87
2022/03/12 06:10:24;;;;;;;14.57;5.60;;;;;;;0.34;32.19;100654.53;5040515;28;20021;-88
2022/03/12 06:12:51;;;;;;;17.70;5.03;;;;;;;0.32;31.98;100661.44;5054394;28;20024;-89
2022/03/12 06:15:18;;;;;;;12.90;5.43;;;;;;;0.36;31.51;100665.66;5053024;28;20040;-88
2022/03/12 06:17:49;;;;;;;16.25;5.07;;;;;;;0.34;31.54;100657.97;5054738;28;20033;-87
2022/03/12 06:20:20;;;;;;;14.32;5.07;;;;;;;0.55;33.72;100664.41;5045476;28;20040;-86
2022/03/12 06:22:46;;;;;;;16.50;5.38;;;;;;;0.83;32.95;100666.44;5047012;28;20210;-88
2022/03/12 06:25:14;;;;;;;12.32;5.32;;;;;;;0.87;31.05;100671.50;5030360;28;20108;-87
2022/03/12 06:27:43;;;;;;;14.93;6.00;;;;;;;0.91;31.03;100673.16;5051442;28;20628;-88
2022/03/12 06:30:11;;;;;;;21.50;5.28;;;;;;;0.87;32.05;100668.09;5053967;28;20052;-88
2022/03/12 06:32:38;;;;;;;15.57;6.40;;;;;;;0.87;32.06;100676.69;5052279;28;20037;-87
2022/03/12 06:35:05;;;;;;;16.10;5.75;;;;;;;0.93;31.24;100683.47;5054508;28;20086;-86
2022/03/12 06:37:31;;;;;;;16.20;4.70;;;;;;;1.01;31.36;100691.03;5055565;28;20036;-86
2022/03/12 06:39:59;;;;;;;11.10;4.45;;;;;;;1.10;31.52;100688.25;5061852;28;20047;-86
2022/03/12 06:42:25;;;;;;;22.83;5.93;;;;;;;1.18;31.44;100694.09;5063269;28;20029;-88
2022/03/12 06:44:55;;;;;;;24.25;6.72;;;;;;;1.25;31.48;100697.38;5057908;28;20349;-88
2022/03/12 06:47:22;;;;;;;15.88;5.50;;;;;;;1.19;31.53;100700.97;5057328;28;20056;-86
2022/03/12 06:49:48;;;;;;;17.42;5.75;;;;;;;1.25;30.68;100707.72;5044743;28;20033;-87
2022/03/12 06:52:16;;;;;;;22.60;5.60;;;;;;;1.24;30.67;100703.44;5051785;28;20025;-87
2022/03/12 06:54:41;;;;;;;15.63;5.82;;;;;;;1.29;30.71;100715.38;5054252;28;20028;-86
2022/03/12 06:57:07;;;;;;;22.40;5.75;;;;;;;1.36;30.56;100713.50;5067733;28;20040;-88
2022/03/12 06:59:33;;;;;;;31.80;9.27;;;;;;;1.37;31.07;100710.03;5069622;28;20079;-87
2022/03/12 07:02:00;;;;;;;17.42;6.22;;;;;;;1.46;30.38;100717.59;5065620;28;20040;-86
2022/03/12 07:04:28;;;;;;;15.38;5.32;;;;;;;1.49;30.27;100714.94;5069397;28;20040;-88
2022/03/12 07:06:56;;;;;;;24.23;5.60;;;;;;;1.56;30.31;100718.22;5058418;28;20016;-87
2022/03/12 07:09:22;;;;;;;17.70;6.13;;;;;;;1.59;30.67;100733.66;5030168;28;20057;-88
2022/03/12 07:11:47;;;;;;;22.25;7.78;;;;;;;1.59;30.39;100726.75;5050180;28;20389;-87
2022/03/12 07:14:15;;;;;;;16.95;5.90;;;;;;;1.66;30.23;100733.47;5049717;28;20433;-88
2022/03/12 07:16:41;;;;;;;14.05;5.18;;;;;;;1.88;29.26;100733.81;5036509;28;20048;-87
2022/03/12 07:19:06;;;;;;;25.85;6.13;;;;;;;1.88;29.84;100736.41;5051478;28;20120;-87
2022/03/12 07:21:34;;;;;;;11.95;4.82;;;;;;;1.87;29.54;100728.69;5047101;28;20041;-87
2022/03/12 07:24:01;;;;;;;34.85;7.78;;;;;;;1.98;29.85;100741.38;5050205;28;20040;-87
2022/03/12 07:26:26;;;;;;;21.88;6.03;;;;;;;2.13;29.64;100739.25;5052289;28;20114;-87
2022/03/12 07:28:57;;;;;;;16.77;6.40;;;;;;;2.10;29.82;100744.50;5050191;28;20441;-87
2022/03/12 07:31:24;;;;;;;14.60;5.53;;;;;;;2.32;28.42;100738.78;5042673;28;20187;-86
2022/03/12 07:34:01;;;;;;;12.85;4.72;;;;;;;2.38;28.86;100743.81;5052214;28;20091;-85
2022/03/12 07:36:26;;;;;;;21.45;5.47;;;;;;;2.49;28.20;100746.13;5052633;28;20037;-88
2022/03/12 07:38:52;;;;;;;10.45;4.35;;;;;;;2.56;28.65;100752.81;5051600;28;20037;-85
2022/03/12 07:41:18;;;;;;;12.20;5.15;;;;;;;2.61;28.62;100748.38;5050369;28;20104;-86
2022/03/12 07:43:43;;;;;;;17.23;5.10;;;;;;;2.59;29.02;100757.91;5041003;28;20040;-86
2022/03/12 07:46:09;;;;;;;14.60;5.07;;;;;;;2.64;28.89;100753.47;5054467;28;20013;-87
2022/03/12 07:48:36;;;;;;;16.65;5.32;;;;;;;2.70;28.57;100757.63;5052884;28;20377;-86
2022/03/12 07:51:02;;;;;;;12.38;5.43;;;;;;;2.73;28.64;100766.16;5050263;28;20037;-86
2022/03/12 07:53:28;;;;;;;21.70;4.82;;;;;;;2.73;28.64;100767.91;5049119;28;20067;-85
2022/03/12 07:56:04;;;;;;;;;;;;;;;;;;;;;
2022/03/12 07:58:33;;;;;;;18.38;5.47;;;;;;;2.81;28.46;100769.41;5054081;28;20017;-86
2022/03/12 08:01:03;;;;;;;15.25;4.55;;;;;;;2.88;28.89;100773.53;5054248;28;20107;-86
2022/03/12 08:03:29;;;;;;;13.93;5.70;;;;;;;2.95;28.49;100771.63;5050269;28;20464;-87
2022/03/12 08:05:54;;;;;;;18.45;5.60;;;;;;;3.03;27.88;100764.47;5052272;28;20128;-85
2022/03/12 08:08:20;;;;;;;17.85;5.07;;;;;;;3.15;27.69;100771.91;5049541;28;20099;-85
2022/03/12 08:13:34;;;;;;;12.13;5.32;;;;;;;3.20;27.95;100771.78;5048218;28;20124;-87
2022/03/12 08:16:00;;;;;;;18.83;5.47;;;;;;;3.23;28.15;100776.03;5050941;28;20048;-86
2022/03/12 08:18:27;;;;;;;12.02;4.50;;;;;;;3.28;28.16;100777.59;5035163;28;20068;-86
2022/03/12 08:20:53;;;;;;;17.55;5.05;;;;;;;3.38;27.95;100770.41;5051206;28;20051;-86
2022/03/12 08:23:22;;;;;;;15.57;5.10;;;;;;;3.48;27.24;100781.31;5048712;28;20038;-85
2022/03/12 08:25:50;;;;;;;25.38;6.50;;;;;;;3.53;27.82;100780.31;5032015;28;20060;-87
2022/03/12 08:28:22;;;;;;;24.07;5.77;;;;;;;3.65;27.54;100779.09;5045357;28;20382;-86
2022/03/12 08:30:48;;;;;;;14.52;5.43;;;;;;;3.68;27.56;100784.19;5063723;28;20033;-86
2022/03/12 08:33:23;;;;;;;14.73;4.75;;;;;;;3.72;27.55;100784.94;5049462;28;20036;-86
2022/03/12 08:35:52;;;;;;;15.07;4.85;;;;;;;3.69;27.15;100783.28;5050292;28;20178;-88
2022/03/12 08:38:19;;;;;;;27.20;6.38;;;;;;;3.79;27.20;100789.03;5049772;28;20417;-86
2022/03/12 08:40:45;;;;;;;65.47;6.88;;;;;;;3.84;27.21;100787.16;5050979;28;20037;-86
2022/03/12 08:43:18;;;;;;;22.23;5.25;;;;;;;3.91;26.61;100791.25;5053700;28;20028;-86
2022/03/12 08:45:46;;;;;;;15.70;5.63;;;;;;;4.03;26.82;100790.00;5041196;28;20045;-85
2022/03/12 08:48:12;;;;;;;22.58;6.72;;;;;;;4.23;26.91;100782.44;5042027;28;20074;-86
2022/03/12 08:50:38;;;;;;;13.00;5.32;;;;;;;4.40;25.59;100791.41;5043648;28;20337;-86
2022/03/12 08:53:03;;;;;;;15.20;6.00;;;;;;;4.35;26.44;100794.16;5049756;28;20350;-86
2022/03/12 08:55:29;;;;;;;22.50;5.72;;;;;;;4.35;26.54;100792.41;5050130;28;20035;-86
2022/03/12 08:57:56;;;;;;;13.50;4.80;;;;;;;4.39;25.96;100797.50;5051279;28;20025;-88
2022/03/12 09:00:32;;;;;;;14.75;5.28;;;;;;;4.48;26.37;100785.06;5058261;28;20037;-87
2022/03/12 09:03:05;;;;;;;11.63;5.05;;;;;;;4.58;26.43;100785.59;5051861;28;20093;-88
2022/03/12 09:05:36;;;;;;;17.33;6.65;;;;;;;4.62;26.71;100784.59;5044142;28;20123;-87
2022/03/12 09:08:03;;;;;;;36.90;5.68;;;;;;;4.66;25.84;100780.97;5056918;28;20029;-86
2022/03/12 09:10:28;;;;;;;21.38;5.63;;;;;;;4.73;26.07;100781.63;5054311;28;20150;-86
2022/03/12 09:12:54;;;;;;;19.80;5.10;;;;;;;4.82;25.67;100773.50;5057837;28;20052;-86
2022/03/12 09:15:24;;;;;;;15.80;5.95;;;;;;;4.90;26.11;100776.69;5056764;28;20095;-87
2022/03/12 09:17:53;;;;;;;17.95;7.55;;;;;;;4.98;26.63;100772.06;5048702;28;20186;-86
2022/03/12 09:20:20;;;;;;;18.87;4.97;;;;;;;4.99;25.70;100767.72;5052348;28;20033;-87
2022/03/12 09:22:50;;;;;;;12.82;5.15;;;;;;;4.99;25.64;100765.94;5045349;28;20483;-88
2022/03/12 09:25:15;;;;;;;19.05;5.15;;;;;;;5.10;26.07;100771.59;5028312;28;20051;-88
2022/03/12 09:27:48;;;;;;;14.85;5.22;;;;;;;5.17;25.55;100771.41;5039211;28;20029;-87
2022/03/12 09:30:14;;;;;;;18.65;5.38;;;;;;;5.17;26.03;100767.03;5057025;28;20037;-88
2022/03/12 09:32:41;;;;;;;21.02;5.57;;;;;;;5.22;25.72;100764.25;5057242;28;20029;-88
2022/03/12 09:35:14;;;;;;;12.45;4.88;;;;;;;5.22;25.09;100765.09;5054262;28;20123;-87
2022/03/12 09:37:40;;;;;;;15.45;5.22;;;;;;;5.22;24.98;100765.09;5056120;28;20028;-88
2022/03/12 09:40:07;;;;;;;17.27;5.40;;;;;;;5.31;25.39;100761.34;5052732;28;20063;-89
2022/03/12 09:42:36;;;;;;;14.88;5.40;;;;;;;5.37;25.50;100761.09;5051339;28;20037;-86
2022/03/12 09:45:03;;;;;;;;;;;;;;;5.51;25.98;100761.41;5047148;28;20037;-88
2022/03/12 09:47:28;;;;;;;13.88;5.72;;;;;;;5.53;24.87;100759.63;5053834;28;19944;-88
2022/03/12 09:49:57;;;;;;;24.95;6.28;;;;;;;5.56;24.90;100754.31;5053225;28;20029;-89
2022/03/12 09:52:29;;;;;;;12.07;5.20;;;;;;;5.64;24.94;100750.56;5056138;28;20013;-88
2022/03/12 09:54:55;;;;;;;14.32;4.78;;;;;;;5.66;25.16;100748.72;5055724;28;20029;-89
2022/03/12 09:57:20;;;;;;;14.73;5.05;;;;;;;5.68;25.15;100750.38;5061435;28;20043;-90
2022/03/12 09:59:49;;;;;;;19.33;5.97;;;;;;;5.79;25.58;100755.16;5045914;28;20037;-88
2022/03/12 10:02:24;;;;;;;12.27;5.32;;;;;;;5.85;24.87;100752.28;5045684;28;20048;-92
2022/03/12 10:04:54;;;;;;;16.33;5.95;;;;;;;5.91;25.19;100751.22;5040594;28;20025;-90
2022/03/12 10:07:19;;;;;;;12.57;5.07;;;;;;;5.90;24.44;100741.72;5043358;28;20029;-91
2022/03/12 10:09:50;;;;;;;15.25;5.43;;;;;;;5.90;24.17;100742.56;5052288;28;20025;-90
2022/03/12 10:12:16;;;;;;;18.35;5.13;;;;;;;5.95;25.27;100738.03;5055758;28;20040;-91
2022/03/12 10:14:42;;;;;;;12.20;5.40;;;;;;;6.05;24.99;100723.75;5061721;28;20045;-91
2022/03/12 10:17:11;;;;;;;14.20;5.60;;;;;;;6.14;25.47;100726.88;5054458;28;20029;-90
2022/03/12 10:19:45;;;;;;;15.45;5.00;;;;;;;6.29;23.08;100721.84;5049045;28;20416;-90
2022/03/12 10:22:15;;;;;;;15.40;6.53;;;;;;;6.52;22.61;100718.25;5056849;28;20021;-92
2022/03/12 10:24:41;;;;;;;13.43;5.43;;;;;;;6.81;23.64;100710.94;5045209;28;20075;-87
2022/03/12 10:27:07;;;;;;;13.23;5.40;;;;;;;6.95;22.77;100700.75;5038685;28;20061;-90
2022/03/12 10:29:47;;;;;;;14.60;4.68;;;;;;;7.06;23.20;100707.25;5039500;28;20097;-88
2022/03/12 10:32:28;;;;;;;17.52;6.57;;;;;;;7.06;23.76;100712.44;5026337;28;20033;-89
2022/03/12 10:34:56;;;;;;;12.48;5.50;;;;;;;7.03;24.17;100711.66;5055660;28;20128;-90
2022/03/12 10:37:33;;;;;;;14.05;4.85;;;;;;;7.10;22.35;100704.41;5058138;28;20058;-89
2022/03/12 10:40:13;;;;;;;13.27;4.95;;;;;;;7.14;22.58;100711.19;5054441;28;20052;-89
2022/03/12 10:42:46;;;;;;;15.40;5.30;;;;;;;7.28;22.28;100710.56;5058220;28;20123;-90
2022/03/12 10:45:19;;;;;;;14.25;5.10;;;;;;;7.32;21.75;100703.44;5056736;28;20205;-88
2022/03/12 10:47:48;;;;;;;16.58;5.30;;;;;;;7.39;23.22;100707.44;5024211;28;20075;-88
2022/03/12 10:50:21;;;;;;;35.40;10.75;;;;;;;7.43;22.98;100701.16;5054193;28;20033;-89
2022/03/12 10:52:54;;;;;;;31.55;9.85;;;;;;;7.51;22.76;100705.09;5046501;28;20073;-89
2022/03/12 10:55:29;;;;;;;45.03;13.60;;;;;;;7.56;22.94;100698.81;5036474;28;20119;-89
2022/03/12 10:58:08;;;;;;;15.57;5.75;;;;;;;7.55;21.99;100699.72;5044604;28;20024;-90
2022/03/12 11:01:01;;;;;;;16.65;6.45;;;;;;;7.57;22.20;100703.13;5047868;28;20040;-89
2022/03/12 11:03:38;;;;;;;12.23;5.70;;;;;;;7.66;21.99;100700.06;5037480;28;20040;-90
2022/03/12 11:06:10;;;;;;;15.75;6.05;;;;;;;7.71;22.10;100698.06;5055094;28;20037;-89
2022/03/12 11:08:38;;;;;;;16.48;5.30;;;;;;;7.80;22.38;100702.00;5049738;28;20061;-89
2022/03/12 11:11:10;;;;;;;15.60;6.60;;;;;;;7.90;22.27;100698.03;5048372;28;20049;-88
2022/03/12 11:13:43;;;;;;;14.02;5.18;;;;;;;8.03;22.41;100700.88;5055132;28;20032;-90
2022/03/12 11:16:19;;;;;;;16.33;5.57;;;;;;;8.13;22.38;100682.06;5058870;28;20087;-88
2022/03/12 11:18:56;;;;;;;23.33;5.53;;;;;;;8.19;22.30;100683.50;5058352;28;20044;-89
2022/03/12 11:21:50;;;;;;;14.63;5.20;;;;;;;8.23;22.54;100683.28;5049346;28;20109;-88
2022/03/12 11:25:25;;;;;;;14.57;5.00;;;;;;;8.29;21.71;100678.66;5038514;28;20045;-88
2022/03/12 11:27:56;;;;;;;13.93;5.03;;;;;;;8.30;21.32;100680.34;4972185;28;20111;-88
2022/03/12 11:30:29;;;;;;;12.55;5.97;;;;;;;8.45;21.66;100670.00;4978628;28;20052;-90
2022/03/12 11:33:07;;;;;;;10.98;4.68;;;;;;;8.49;21.08;100673.25;5008092;28;20038;-87
2022/03/12 11:35:40;;;;;;;13.23;5.20;;;;;;;8.53;21.00;100666.09;5011149;28;20046;-88
2022/03/12 11:38:17;;;;;;;14.93;5.50;;;;;;;8.59;21.19;100668.41;5005164;28;20081;-87